sensor_id;sensor_type;location;lat;lon;timestamp;pressure;altitude;pressure_sealevel;temperature;humidity
46476;BME280;53376;51.114;14.738;2022-12-07T00:02:23;98088.28;;;4.26;69.15
46476;BME280;53376;51.114;14.738;2022-12-07T00:15:11;98079.53;;;4.25;69.25
46476;BME280;53376;51.114;14.738;2022-12-07T00:17:53;98076.06;;;4.25;69.24
46476;BME280;53376;51.114;14.738;2022-12-07T00:20:20;98079.53;;;4.25;69.30
46476;BME280;53376;51.114;14.738;2022-12-07T00:23:00;98071.63;;;4.25;69.33
46476;BME280;53376;51.114;14.738;2022-12-07T00:25:27;98069.91;;;4.24;69.46
46476;BME280;53376;51.114;14.738;2022-12-07T00:42:00;98063.00;;;4.22;69.67
46476;BME280;53376;51.114;14.738;2022-12-07T00:44:27;98062.94;;;4.23;69.87
46476;BME280;53376;51.114;14.738;2022-12-07T00:47:07;98061.25;;;4.22;69.96
46476;BME280;53376;51.114;14.738;2022-12-07T00:49:33;98060.31;;;4.23;69.96
46476;BME280;53376;51.114;14.738;2022-12-07T00:52:07;98063.81;;;4.24;69.81
46476;BME280;53376;51.114;14.738;2022-12-07T00:54:49;98064.66;;;4.24;70.04
46476;BME280;53376;51.114;14.738;2022-12-07T00:57:15;98062.94;;;4.23;70.03
46476;BME280;53376;51.114;14.738;2022-12-07T01:07:00;98064.66;;;4.24;70.01
46476;BME280;53376;51.114;14.738;2022-12-07T01:09:40;98064.66;;;4.24;70.11
46476;BME280;53376;51.114;14.738;2022-12-07T01:12:22;98069.06;;;4.24;70.07
46476;BME280;53376;51.114;14.738;2022-12-07T01:14:48;98076.09;;;4.23;70.41
46476;BME280;53376;51.114;14.738;2022-12-07T01:17:28;98082.28;;;4.22;70.37
46476;BME280;53376;51.114;14.738;2022-12-07T01:19:55;98077.88;;;4.23;70.45
46476;BME280;53376;51.114;14.738;2022-12-07T01:33:10;98085.84;;;4.21;70.47
46476;BME280;53376;51.114;14.738;2022-12-07T01:35:50;98075.31;;;4.21;70.17
46476;BME280;53376;51.114;14.738;2022-12-07T01:38:16;98075.31;;;4.21;70.20
46476;BME280;53376;51.114;14.738;2022-12-07T01:41:04;98081.41;;;4.22;70.22
46476;BME280;53376;51.114;14.738;2022-12-07T01:44:10;98074.41;;;4.22;70.03
46476;BME280;53376;51.114;14.738;2022-12-07T01:47:00;98072.63;;;4.23;70.15
46476;BME280;53376;51.114;14.738;2022-12-07T01:59:54;98077.03;;;4.22;69.84
46476;BME280;53376;51.114;14.738;2022-12-07T02:02:45;98070.06;;;4.21;69.84
46476;BME280;53376;51.114;14.738;2022-12-07T02:05:27;98070.06;;;4.21;69.89
46476;BME280;53376;51.114;14.738;2022-12-07T02:07:56;98069.13;;;4.22;69.66
46476;BME280;53376;51.114;14.738;2022-12-07T02:10:37;98063.88;;;4.22;69.72
46476;BME280;53376;51.114;14.738;2022-12-07T02:13:09;98064.78;;;4.21;69.69
46476;BME280;53376;51.114;14.738;2022-12-07T02:16:12;98064.78;;;4.21;69.63
46476;BME280;53376;51.114;14.738;2022-12-07T02:29:22;98057.81;;;4.20;69.44
46476;BME280;53376;51.114;14.738;2022-12-07T02:32:06;98056.09;;;4.19;69.50
46476;BME280;53376;51.114;14.738;2022-12-07T02:34:56;98050.97;;;4.16;69.26
46476;BME280;53376;51.114;14.738;2022-12-07T02:37:39;98052.66;;;4.17;69.43
46476;BME280;53376;51.114;14.738;2022-12-07T02:40:28;98052.66;;;4.17;69.14
46476;BME280;53376;51.114;14.738;2022-12-07T02:53:31;98035.19;;;4.16;69.21
46476;BME280;53376;51.114;14.738;2022-12-07T02:56:22;98030.84;;;4.15;69.15
46476;BME280;53376;51.114;14.738;2022-12-07T02:59:16;98025.50;;;4.16;69.14
46476;BME280;53376;51.114;14.738;2022-12-07T03:02:09;98031.63;;;4.17;69.01
46476;BME280;53376;51.114;14.738;2022-12-07T03:05:13;98024.66;;;4.16;68.94
46476;BME280;53376;51.114;14.738;2022-12-07T03:21:39;98014.25;;;4.13;68.77
46476;BME280;53376;51.114;14.738;2022-12-07T03:24:27;98004.66;;;4.12;68.75
46476;BME280;53376;51.114;14.738;2022-12-07T03:27:08;98006.44;;;4.11;68.74
46476;BME280;53376;51.114;14.738;2022-12-07T03:29:56;98009.97;;;4.10;68.81
46476;BME280;53376;51.114;14.738;2022-12-07T03:32:38;98011.81;;;4.08;68.61
46476;BME280;53376;51.114;14.738;2022-12-07T03:35:26;98013.59;;;4.08;68.94
46476;BME280;53376;51.114;14.738;2022-12-07T03:48:25;98011.78;;;4.10;68.87
46476;BME280;53376;51.114;14.738;2022-12-07T03:51:14;98014.41;;;4.10;68.77
46476;BME280;53376;51.114;14.738;2022-12-07T03:54:07;98011.81;;;4.08;68.73
46476;BME280;53376;51.114;14.738;2022-12-07T03:56:45;98017.94;;;4.09;68.72
46476;BME280;53376;51.114;14.738;2022-12-07T03:59:27;98008.41;;;4.06;68.91
46476;BME280;53376;51.114;14.738;2022-12-07T04:01:58;98007.53;;;4.06;68.81
46476;BME280;53376;51.114;14.738;2022-12-07T04:15:14;98002.47;;;4.01;68.40
46476;BME280;53376;51.114;14.738;2022-12-07T04:17:54;98003.31;;;4.01;68.61
46476;BME280;53376;51.114;14.738;2022-12-07T04:20:21;97990.28;;;3.98;68.38
46476;BME280;53376;51.114;14.738;2022-12-07T04:23:01;97995.53;;;3.98;68.38
46476;BME280;53376;51.114;14.738;2022-12-07T04:25:27;97982.47;;;3.97;68.40
46476;BME280;53376;51.114;14.738;2022-12-07T04:42:05;97972.34;;;3.87;68.27
46476;BME280;53376;51.114;14.738;2022-12-07T04:44:45;97975.88;;;3.86;68.33
46476;BME280;53376;51.114;14.738;2022-12-07T04:47:25;97972.44;;;3.84;68.29
46476;BME280;53376;51.114;14.738;2022-12-07T04:49:51;97973.31;;;3.85;68.14
46476;BME280;53376;51.114;14.738;2022-12-07T04:52:33;97975.06;;;3.84;68.26
46476;BME280;53376;51.114;14.738;2022-12-07T04:54:59;97980.34;;;3.84;68.34
46476;BME280;53376;51.114;14.738;2022-12-07T05:08:20;97957.78;;;3.79;67.60
46476;BME280;53376;51.114;14.738;2022-12-07T05:11:02;97955.09;;;3.80;67.95
46476;BME280;53376;51.114;14.738;2022-12-07T05:13:31;97958.50;;;3.82;67.76
46476;BME280;53376;51.114;14.738;2022-12-07T05:16:12;97955.94;;;3.81;67.65
46476;BME280;53376;51.114;14.738;2022-12-07T05:18:38;97955.94;;;3.81;67.19
46476;BME280;53376;51.114;14.738;2022-12-07T05:21:19;97936.88;;;3.76;67.17
46476;BME280;53376;51.114;14.738;2022-12-07T05:34:02;97928.56;;;3.64;67.24
46476;BME280;53376;51.114;14.738;2022-12-07T05:36:43;97926.84;;;3.63;67.19
46476;BME280;53376;51.114;14.738;2022-12-07T05:39:23;97925.13;;;3.62;66.98
46476;BME280;53376;51.114;14.738;2022-12-07T05:41:49;97927.84;;;3.61;66.91
46476;BME280;53376;51.114;14.738;2022-12-07T05:44:23;97929.72;;;3.57;67.14
46476;BME280;53376;51.114;14.738;2022-12-07T05:47:03;97928.09;;;3.54;67.07
46476;BME280;53376;51.114;14.738;2022-12-07T06:00:17;97916.09;;;3.47;67.42
46476;BME280;53376;51.114;14.738;2022-12-07T06:02:57;97930.09;;;3.48;67.37
46476;BME280;53376;51.114;14.738;2022-12-07T06:05:37;97928.44;;;3.45;67.12
46476;BME280;53376;51.114;14.738;2022-12-07T06:08:03;97923.25;;;3.44;67.09
46476;BME280;53376;51.114;14.738;2022-12-07T06:10:44;97922.34;;;3.45;67.28
46476;BME280;53376;51.114;14.738;2022-12-07T06:13:10;97916.25;;;3.44;67.44
46476;BME280;53376;51.114;14.738;2022-12-07T06:16:00;97911.75;;;3.46;67.60
46476;BME280;53376;51.114;14.738;2022-12-07T06:28:47;97899.53;;;3.45;67.37
46476;BME280;53376;51.114;14.738;2022-12-07T06:31:30;97907.47;;;3.44;67.60
46476;BME280;53376;51.114;14.738;2022-12-07T06:34:12;97902.38;;;3.41;67.41
46476;BME280;53376;51.114;14.738;2022-12-07T06:36:47;97901.56;;;3.38;67.37
46476;BME280;53376;51.114;14.738;2022-12-07T06:39:28;97899.78;;;3.39;67.25
46476;BME280;53376;51.114;14.738;2022-12-07T06:41:57;97896.31;;;3.38;67.57
46476;BME280;53376;51.114;14.738;2022-12-07T06:55:09;97898.09;;;3.38;67.81
46476;BME280;53376;51.114;14.738;2022-12-07T06:57:49;97895.41;;;3.39;67.71
46476;BME280;53376;51.114;14.738;2022-12-07T07:00:16;97890.13;;;3.39;67.90
46476;BME280;53376;51.114;14.738;2022-12-07T07:02:58;97894.47;;;3.41;67.95
46476;BME280;53376;51.114;14.738;2022-12-07T07:05:24;97893.56;;;3.42;67.92
46476;BME280;53376;51.114;14.738;2022-12-07T07:22:01;97881.22;;;3.44;68.29
46476;BME280;53376;51.114;14.738;2022-12-07T07:24:42;97877.66;;;3.45;68.21
46476;BME280;53376;51.114;14.738;2022-12-07T07:27:22;97888.09;;;3.46;68.15
46476;BME280;53376;51.114;14.738;2022-12-07T07:29:48;97882.00;;;3.46;68.30
46476;BME280;53376;51.114;14.738;2022-12-07T07:32:22;97875.84;;;3.47;68.18
46476;BME280;53376;51.114;14.738;2022-12-07T07:35:02;97881.03;;;3.48;68.17
46476;BME280;53376;51.114;14.738;2022-12-07T07:37:31;97875.72;;;3.50;68.23
46476;BME280;53376;51.114;14.738;2022-12-07T07:47:16;97879.06;;;3.53;68.27
46476;BME280;53376;51.114;14.738;2022-12-07T07:49:57;97885.06;;;3.57;68.38
46476;BME280;53376;51.114;14.738;2022-12-07T07:52:39;97876.19;;;3.60;68.39
46476;BME280;53376;51.114;14.738;2022-12-07T07:55:07;97873.50;;;3.61;68.51
46476;BME280;53376;51.114;14.738;2022-12-07T07:57:49;97876.94;;;3.63;68.54
46476;BME280;53376;51.114;14.738;2022-12-07T08:00:28;97871.66;;;3.63;68.43
46476;BME280;53376;51.114;14.738;2022-12-07T08:14:04;97876.00;;;3.64;68.61
46476;BME280;53376;51.114;14.738;2022-12-07T08:16:45;97879.47;;;3.65;68.46
46476;BME280;53376;51.114;14.738;2022-12-07T08:19:11;97886.53;;;3.64;68.82
46476;BME280;53376;51.114;14.738;2022-12-07T08:21:52;97886.53;;;3.64;68.79
46476;BME280;53376;51.114;14.738;2022-12-07T08:24:18;97892.59;;;3.66;68.70
46476;BME280;53376;51.114;14.738;2022-12-07T08:26:59;97886.53;;;3.64;69.03
46476;BME280;53376;51.114;14.738;2022-12-07T08:43:07;97883.09;;;3.62;69.55
46476;BME280;53376;51.114;14.738;2022-12-07T08:45:53;97890.91;;;3.64;69.90
46476;BME280;53376;51.114;14.738;2022-12-07T08:48:33;97889.97;;;3.66;69.79
46476;BME280;53376;51.114;14.738;2022-12-07T08:51:15;97888.97;;;3.69;69.91
46476;BME280;53376;51.114;14.738;2022-12-07T08:53:43;97891.59;;;3.69;69.93
46476;BME280;53376;51.114;14.738;2022-12-07T08:56:25;97886.28;;;3.70;70.19
46476;BME280;53376;51.114;14.738;2022-12-07T09:09:09;97900.06;;;3.76;70.36
46476;BME280;53376;51.114;14.738;2022-12-07T09:11:50;97906.91;;;3.80;70.41
46476;BME280;53376;51.114;14.738;2022-12-07T09:14:30;97906.81;;;3.83;70.36
46476;BME280;53376;51.114;14.738;2022-12-07T09:17:05;97903.25;;;3.84;70.38
46476;BME280;53376;51.114;14.738;2022-12-07T09:19:46;97904.81;;;3.88;70.57
46476;BME280;53376;51.114;14.738;2022-12-07T09:22:13;97906.53;;;3.89;70.66
46476;BME280;53376;51.114;14.738;2022-12-07T09:35:25;97899.19;;;3.97;70.51
46476;BME280;53376;51.114;14.738;2022-12-07T09:38:05;97890.38;;;3.98;70.79
46476;BME280;53376;51.114;14.738;2022-12-07T09:40:33;97893.72;;;4.02;70.64
46476;BME280;53376;51.114;14.738;2022-12-07T09:43:15;97887.56;;;4.03;70.57
46476;BME280;53376;51.114;14.738;2022-12-07T09:45:53;97881.31;;;4.06;70.60
46476;BME280;53376;51.114;14.738;2022-12-07T10:02:37;97874.78;;;4.14;70.63
46476;BME280;53376;51.114;14.738;2022-12-07T10:05:23;97872.13;;;4.16;70.68
46476;BME280;53376;51.114;14.738;2022-12-07T10:08:08;97869.41;;;4.17;70.65
46476;BME280;53376;51.114;14.738;2022-12-07T10:10:44;97865.00;;;4.18;70.73
46476;BME280;53376;51.114;14.738;2022-12-07T10:13:35;97863.16;;;4.20;70.62
46476;BME280;53376;51.114;14.738;2022-12-07T10:16:32;97859.69;;;4.19;70.42
46476;BME280;53376;51.114;14.738;2022-12-07T10:29:52;97869.81;;;4.29;70.46
46476;BME280;53376;51.114;14.738;2022-12-07T10:32:34;97861.06;;;4.28;70.77
46476;BME280;53376;51.114;14.738;2022-12-07T10:35:21;97874.06;;;4.31;70.70
46476;BME280;53376;51.114;14.738;2022-12-07T10:38:16;97874.78;;;4.35;70.73
46476;BME280;53376;51.114;14.738;2022-12-07T10:41:03;97868.53;;;4.38;70.58
46476;BME280;53376;51.114;14.738;2022-12-07T10:54:38;97861.81;;;4.51;70.54
46476;BME280;53376;51.114;14.738;2022-12-07T10:57:37;97861.66;;;4.54;70.11
46476;BME280;53376;51.114;14.738;2022-12-07T11:00:21;97860.75;;;4.55;70.07
46476;BME280;53376;51.114;14.738;2022-12-07T11:03:20;97865.09;;;4.56;69.89
46476;BME280;53376;51.114;14.738;2022-12-07T11:06:11;97861.53;;;4.57;70.18
46476;BME280;53376;51.114;14.738;2022-12-07T11:09:10;97863.25;;;4.58;70.01
46476;BME280;53376;51.114;14.738;2022-12-07T11:12:29;97852.72;;;4.58;69.85
46476;BME280;53376;51.114;14.738;2022-12-07T11:22:15;97856.13;;;4.60;69.57
46476;BME280;53376;51.114;14.738;2022-12-07T11:25:15;97858.84;;;4.59;69.60
46476;BME280;53376;51.114;14.738;2022-12-07T11:28:17;97843.91;;;4.59;69.63
46476;BME280;53376;51.114;14.738;2022-12-07T11:31:11;97841.28;;;4.59;69.50
46476;BME280;53376;51.114;14.738;2022-12-07T11:34:10;97829.81;;;4.60;69.40
46476;BME280;53376;51.114;14.738;2022-12-07T11:36:53;97837.72;;;4.60;69.53
46476;BME280;53376;51.114;14.738;2022-12-07T11:50:22;97828.84;;;4.63;69.43
46476;BME280;53376;51.114;14.738;2022-12-07T11:53:14;97819.16;;;4.63;69.57
46476;BME280;53376;51.114;14.738;2022-12-07T11:55:54;97817.31;;;4.65;69.53
46476;BME280;53376;51.114;14.738;2022-12-07T11:58:49;97824.25;;;4.66;69.38
46476;BME280;53376;51.114;14.738;2022-12-07T12:01:48;97820.72;;;4.67;69.17
46476;BME280;53376;51.114;14.738;2022-12-07T12:15:26;97806.63;;;4.68;68.54
46476;BME280;53376;51.114;14.738;2022-12-07T12:18:31;97796.09;;;4.68;68.77
46476;BME280;53376;51.114;14.738;2022-12-07T12:21:22;97802.25;;;4.69;68.69
46476;BME280;53376;51.114;14.738;2022-12-07T12:24:14;97802.25;;;4.69;68.80
46476;BME280;53376;51.114;14.738;2022-12-07T12:26:56;97809.25;;;4.68;68.63
46476;BME280;53376;51.114;14.738;2022-12-07T12:29:43;97806.63;;;4.68;68.78
46476;BME280;53376;51.114;14.738;2022-12-07T12:32:21;97808.47;;;4.66;68.76
46476;BME280;53376;51.114;14.738;2022-12-07T12:42:18;97805.84;;;4.66;69.23
46476;BME280;53376;51.114;14.738;2022-12-07T12:45:20;97799.66;;;4.67;69.25
46476;BME280;53376;51.114;14.738;2022-12-07T12:48:04;97814.53;;;4.68;69.30
46476;BME280;53376;51.114;14.738;2022-12-07T12:50:43;97822.44;;;4.68;69.34
46476;BME280;53376;51.114;14.738;2022-12-07T12:53:25;97830.41;;;4.67;69.05
46476;BME280;53376;51.114;14.738;2022-12-07T12:56:26;97825.34;;;4.62;69.11
46476;BME280;53376;51.114;14.738;2022-12-07T13:09:46;97836.78;;;4.42;68.93
46476;BME280;53376;51.114;14.738;2022-12-07T13:12:27;97841.16;;;4.42;68.80
46476;BME280;53376;51.114;14.738;2022-12-07T13:14:57;97850.13;;;4.38;68.83
46476;BME280;53376;51.114;14.738;2022-12-07T13:17:57;97845.84;;;4.35;68.72
46476;BME280;53376;51.114;14.738;2022-12-07T13:20:49;97852.03;;;4.34;68.88
46476;BME280;53376;51.114;14.738;2022-12-07T13:37:32;97827.72;;;4.29;68.84
46476;BME280;53376;51.114;14.738;2022-12-07T13:40:20;97840.03;;;4.28;68.79
46476;BME280;53376;51.114;14.738;2022-12-07T13:43:04;97840.88;;;4.29;68.85
46476;BME280;53376;51.114;14.738;2022-12-07T13:45:38;97834.75;;;4.28;68.83
46476;BME280;53376;51.114;14.738;2022-12-07T13:48:25;97835.75;;;4.26;68.98
46476;BME280;53376;51.114;14.738;2022-12-07T13:51:04;97834.03;;;4.25;68.75
46476;BME280;53376;51.114;14.738;2022-12-07T14:04:31;97843.84;;;4.21;69.00
46476;BME280;53376;51.114;14.738;2022-12-07T14:07:24;97835.16;;;4.19;68.79
46476;BME280;53376;51.114;14.738;2022-12-07T14:10:00;97845.69;;;4.19;69.00
46476;BME280;53376;51.114;14.738;2022-12-07T14:12:42;97841.28;;;4.19;68.77
46476;BME280;53376;51.114;14.738;2022-12-07T14:15:21;97843.97;;;4.18;69.11
46476;BME280;53376;51.114;14.738;2022-12-07T14:28:46;97825.81;;;4.12;69.05
46476;BME280;53376;51.114;14.738;2022-12-07T14:31:27;97828.53;;;4.10;69.03
46476;BME280;53376;51.114;14.738;2022-12-07T14:34:03;97833.84;;;4.09;69.12
46476;BME280;53376;51.114;14.738;2022-12-07T14:36:44;97835.63;;;4.08;68.92
46476;BME280;53376;51.114;14.738;2022-12-07T14:39:10;97843.50;;;4.08;68.99
46476;BME280;53376;51.114;14.738;2022-12-07T14:41:51;97842.66;;;4.08;69.20
46476;BME280;53376;51.114;14.738;2022-12-07T14:58:00;97825.16;;;4.07;69.24
46476;BME280;53376;51.114;14.738;2022-12-07T15:00:40;97826.88;;;4.08;69.27
46476;BME280;53376;51.114;14.738;2022-12-07T15:03:07;97822.53;;;4.07;69.05
46476;BME280;53376;51.114;14.738;2022-12-07T15:05:47;97832.25;;;4.04;69.25
46476;BME280;53376;51.114;14.738;2022-12-07T15:08:14;97829.63;;;4.04;69.34
46476;BME280;53376;51.114;14.738;2022-12-07T15:10:54;97825.31;;;4.03;69.34
46476;BME280;53376;51.114;14.738;2022-12-07T15:23:37;97839.56;;;3.98;69.62
46476;BME280;53376;51.114;14.738;2022-12-07T15:26:18;97843.91;;;3.99;69.71
46476;BME280;53376;51.114;14.738;2022-12-07T15:29:00;97836.94;;;3.98;69.52
46476;BME280;53376;51.114;14.738;2022-12-07T15:31:26;97837.84;;;3.97;69.60
46476;BME280;53376;51.114;14.738;2022-12-07T15:34:30;97832.59;;;3.97;69.75
46476;BME280;53376;51.114;14.738;2022-12-07T15:37:12;97827.41;;;3.95;69.74
46476;BME280;53376;51.114;14.738;2022-12-07T15:50:25;97837.28;;;3.90;69.90
46476;BME280;53376;51.114;14.738;2022-12-07T15:53:05;97839.09;;;3.88;69.73
46476;BME280;53376;51.114;14.738;2022-12-07T15:55:31;97827.75;;;3.87;69.74
46476;BME280;53376;51.114;14.738;2022-12-07T15:58:12;97834.75;;;3.87;69.78
46476;BME280;53376;51.114;14.738;2022-12-07T16:00:38;97825.16;;;3.86;69.99
46476;BME280;53376;51.114;14.738;2022-12-07T16:17:15;97824.25;;;3.87;69.88
46476;BME280;53376;51.114;14.738;2022-12-07T16:19:56;97837.38;;;3.87;69.69
46476;BME280;53376;51.114;14.738;2022-12-07T16:22:36;97843.56;;;3.86;69.87
46476;BME280;53376;51.114;14.738;2022-12-07T16:25:03;97833.91;;;3.86;69.64
46476;BME280;53376;51.114;14.738;2022-12-07T16:27:44;97836.56;;;3.86;69.60
46476;BME280;53376;51.114;14.738;2022-12-07T16:30:12;97834.91;;;3.84;69.72
46476;BME280;53376;51.114;14.738;2022-12-07T16:43:26;97828.19;;;3.77;69.70
46476;BME280;53376;51.114;14.738;2022-12-07T16:46:07;97829.09;;;3.76;69.70
46476;BME280;53376;51.114;14.738;2022-12-07T16:48:36;97821.38;;;3.73;69.98
46476;BME280;53376;51.114;14.738;2022-12-07T16:51:17;97830.03;;;3.75;69.96
46476;BME280;53376;51.114;14.738;2022-12-07T16:53:43;97824.91;;;3.71;69.72
46476;BME280;53376;51.114;14.738;2022-12-07T16:56:24;97830.03;;;3.75;70.01
46476;BME280;53376;51.114;14.738;2022-12-07T17:09:11;97830.03;;;3.75;70.05
46476;BME280;53376;51.114;14.738;2022-12-07T17:11:54;97823.94;;;3.74;69.97
46476;BME280;53376;51.114;14.738;2022-12-07T17:14:34;97835.44;;;3.71;69.94
46476;BME280;53376;51.114;14.738;2022-12-07T17:17:01;97842.41;;;3.73;70.18
46476;BME280;53376;51.114;14.738;2022-12-07T17:19:42;97846.66;;;3.75;70.20
46476;BME280;53376;51.114;14.738;2022-12-07T17:22:09;97843.16;;;3.75;70.06
46476;BME280;53376;51.114;14.738;2022-12-07T17:38:36;97837.25;;;3.69;70.06
46476;BME280;53376;51.114;14.738;2022-12-07T17:41:08;97839.94;;;3.68;70.00
46476;BME280;53376;51.114;14.738;2022-12-07T17:43:49;97839.09;;;3.67;70.10
46476;BME280;53376;51.114;14.738;2022-12-07T17:46:15;97839.94;;;3.68;70.29
46476;BME280;53376;51.114;14.738;2022-12-07T17:48:57;97835.59;;;3.67;70.27
46476;BME280;53376;51.114;14.738;2022-12-07T17:51:26;97838.25;;;3.67;70.20
46476;BME280;53376;51.114;14.738;2022-12-07T18:04:36;97847.75;;;3.69;70.34
46476;BME280;53376;51.114;14.738;2022-12-07T18:07:18;97842.50;;;3.69;70.58
46476;BME280;53376;51.114;14.738;2022-12-07T18:09:45;97846.06;;;3.68;70.54
46476;BME280;53376;51.114;14.738;2022-12-07T18:12:26;97849.59;;;3.67;70.49
46476;BME280;53376;51.114;14.738;2022-12-07T18:14:52;97839.16;;;3.66;70.67
46476;BME280;53376;51.114;14.738;2022-12-07T18:17:33;97838.34;;;3.64;70.60
46476;BME280;53376;51.114;14.738;2022-12-07T18:30:16;97840.13;;;3.63;70.50
46476;BME280;53376;51.114;14.738;2022-12-07T18:33:17;97834.94;;;3.62;70.68
46476;BME280;53376;51.114;14.738;2022-12-07T18:35:59;97838.41;;;3.62;70.71
46476;BME280;53376;51.114;14.738;2022-12-07T18:38:27;97841.91;;;3.63;70.62
46476;BME280;53376;51.114;14.738;2022-12-07T18:41:10;97840.22;;;3.62;70.75
46476;BME280;53376;51.114;14.738;2022-12-07T18:57:26;97830.44;;;3.65;70.52
46476;BME280;53376;51.114;14.738;2022-12-07T19:00:08;97839.22;;;3.64;70.68
46476;BME280;53376;51.114;14.738;2022-12-07T19:02:35;97833.97;;;3.64;70.63
46476;BME280;53376;51.114;14.738;2022-12-07T19:05:15;97837.44;;;3.65;70.77
46476;BME280;53376;51.114;14.738;2022-12-07T19:07:42;97835.72;;;3.64;70.82
46476;BME280;53376;51.114;14.738;2022-12-07T19:10:23;97835.69;;;3.65;70.59
46476;BME280;53376;51.114;14.738;2022-12-07T19:23:07;97828.72;;;3.64;70.63
46476;BME280;53376;51.114;14.738;2022-12-07T19:25:47;97837.50;;;3.63;70.56
46476;BME280;53376;51.114;14.738;2022-12-07T19:28:26;97833.97;;;3.64;70.89
46476;BME280;53376;51.114;14.738;2022-12-07T19:30:53;97840.94;;;3.65;70.64
46476;BME280;53376;51.114;14.738;2022-12-07T19:33:33;97841.84;;;3.64;70.60
46476;BME280;53376;51.114;14.738;2022-12-07T19:36:00;97840.06;;;3.65;70.65
46476;BME280;53376;51.114;14.738;2022-12-07T19:49:39;97834.75;;;3.66;70.53
46476;BME280;53376;51.114;14.738;2022-12-07T19:52:20;97840.03;;;3.66;70.56
46476;BME280;53376;51.114;14.738;2022-12-07T19:54:46;97836.53;;;3.66;70.43
46476;BME280;53376;51.114;14.738;2022-12-07T19:57:27;97840.03;;;3.66;70.31
46476;BME280;53376;51.114;14.738;2022-12-07T19:59:54;97845.28;;;3.66;70.48
46476;BME280;53376;51.114;14.738;2022-12-07T20:02:33;97840.88;;;3.67;70.43
46476;BME280;53376;51.114;14.738;2022-12-07T20:05:02;97842.66;;;3.66;70.27
46476;BME280;53376;51.114;14.738;2022-12-07T20:07:43;97839.09;;;3.67;70.40
46476;BME280;53376;51.114;14.738;2022-12-07T20:17:00;97829.56;;;3.65;70.25
46476;BME280;53376;51.114;14.738;2022-12-07T20:19:41;97827.00;;;3.63;70.24
46476;BME280;53376;51.114;14.738;2022-12-07T20:22:10;97832.25;;;3.63;70.26
46476;BME280;53376;51.114;14.738;2022-12-07T20:24:50;97835.72;;;3.64;70.20
46476;BME280;53376;51.114;14.738;2022-12-07T20:27:16;97829.69;;;3.62;70.30
46476;BME280;53376;51.114;14.738;2022-12-07T20:29:57;97836.66;;;3.63;70.26
46476;BME280;53376;51.114;14.738;2022-12-07T20:32:23;97829.69;;;3.62;70.34
46476;BME280;53376;51.114;14.738;2022-12-07T20:45:36;97834.06;;;3.61;70.35
46476;BME280;53376;51.114;14.738;2022-12-07T20:48:20;97830.59;;;3.61;70.30
46476;BME280;53376;51.114;14.738;2022-12-07T20:50:47;97830.53;;;3.62;70.39
46476;BME280;53376;51.114;14.738;2022-12-07T20:53:21;97826.19;;;3.61;70.26
46476;BME280;53376;51.114;14.738;2022-12-07T20:56:02;97820.94;;;3.61;70.26
46476;BME280;53376;51.114;14.738;2022-12-07T21:12:10;97818.53;;;3.57;70.64
46476;BME280;53376;51.114;14.738;2022-12-07T21:14:50;97822.84;;;3.58;70.68
46476;BME280;53376;51.114;14.738;2022-12-07T21:17:17;97828.97;;;3.58;70.56
46476;BME280;53376;51.114;14.738;2022-12-07T21:19:58;97821.09;;;3.58;70.71
46476;BME280;53376;51.114;14.738;2022-12-07T21:22:24;97823.72;;;3.58;70.67
46476;BME280;53376;51.114;14.738;2022-12-07T21:25:05;97826.28;;;3.60;70.75
46476;BME280;53376;51.114;14.738;2022-12-07T21:27:34;97821.00;;;3.60;70.86
46476;BME280;53376;51.114;14.738;2022-12-07T21:37:19;97827.91;;;3.62;70.51
46476;BME280;53376;51.114;14.738;2022-12-07T21:39:59;97823.56;;;3.61;70.59
46476;BME280;53376;51.114;14.738;2022-12-07T21:42:47;97818.38;;;3.60;70.56
46476;BME280;53376;51.114;14.738;2022-12-07T21:45:24;97815.75;;;3.60;70.72
46476;BME280;53376;51.114;14.738;2022-12-07T21:48:05;97815.81;;;3.58;70.58
46476;BME280;53376;51.114;14.738;2022-12-07T21:50:33;97818.44;;;3.58;70.68
46476;BME280;53376;51.114;14.738;2022-12-07T22:03:45;97824.63;;;3.57;70.48
46476;BME280;53376;51.114;14.738;2022-12-07T22:06:26;97814.13;;;3.57;70.32
46476;BME280;53376;51.114;14.738;2022-12-07T22:08:55;97821.16;;;3.57;70.50
46476;BME280;53376;51.114;14.738;2022-12-07T22:11:35;97818.56;;;3.55;70.57
46476;BME280;53376;51.114;14.738;2022-12-07T22:14:03;97811.63;;;3.54;70.61
46476;BME280;53376;51.114;14.738;2022-12-07T22:16:43;97807.28;;;3.53;70.54
46476;BME280;53376;51.114;14.738;2022-12-07T22:32:49;97811.63;;;3.54;70.59
46476;BME280;53376;51.114;14.738;2022-12-07T22:35:29;97818.56;;;3.55;70.52
46476;BME280;53376;51.114;14.738;2022-12-07T22:37:56;97822.13;;;3.54;70.69
46476;BME280;53376;51.114;14.738;2022-12-07T22:40:29;97827.41;;;3.54;70.64
46476;BME280;53376;51.114;14.738;2022-12-07T22:43:09;97827.41;;;3.54;70.63
46476;BME280;53376;51.114;14.738;2022-12-07T22:45:38;97824.78;;;3.54;70.70
46476;BME280;53376;51.114;14.738;2022-12-07T22:58:59;97817.72;;;3.54;70.59
46476;BME280;53376;51.114;14.738;2022-12-07T23:01:48;97823.81;;;3.55;70.64
46476;BME280;53376;51.114;14.738;2022-12-07T23:04:21;97820.28;;;3.56;70.59
46476;BME280;53376;51.114;14.738;2022-12-07T23:07:00;97823.81;;;3.55;70.90
46476;BME280;53376;51.114;14.738;2022-12-07T23:09:27;97813.31;;;3.55;70.88
46476;BME280;53376;51.114;14.738;2022-12-07T23:12:08;97814.19;;;3.55;70.85
46476;BME280;53376;51.114;14.738;2022-12-07T23:24:52;97814.03;;;3.59;70.62
46476;BME280;53376;51.114;14.738;2022-12-07T23:27:33;97802.81;;;3.55;70.62
46476;BME280;53376;51.114;14.738;2022-12-07T23:30:13;97808.78;;;3.59;70.73
46476;BME280;53376;51.114;14.738;2022-12-07T23:32:40;97799.19;;;3.58;70.64
46476;BME280;53376;51.114;14.738;2022-12-07T23:35:19;97810.56;;;3.58;70.67
46476;BME280;53376;51.114;14.738;2022-12-07T23:37:46;97807.94;;;3.58;70.64
46476;BME280;53376;51.114;14.738;2022-12-07T23:50:58;97806.13;;;3.60;70.73
46476;BME280;53376;51.114;14.738;2022-12-07T23:53:42;97807.81;;;3.61;70.69